Time;durP1;ratioP1;P1;durP2;ratioP2;P2;SDS_P1;SDS_P2;PMS_P1;PMS_P2;Temp;Humidity;BMP_temperature;BMP_pressure;BME280_temperature;BME280_humidity;BME280_pressure;Samples;Min_cycle;Max_cycle;Signal;HPM_P1;HPM_P2
2022/06/22 00:00:18;;;;;;;;;;;;;;;23.11;41.54;101517.22;4815902;29;19924;-76
2022/06/22 00:02:45;;;;;;;;;;;;;;;23.12;41.55;101516.31;4847638;29;19928;-77
2022/06/22 00:05:16;;;;;;;;;;;;;;;23.12;41.75;101509.28;4846878;29;20057;-77
2022/06/22 00:07:45;;;;;;;;;;;;;;;23.12;41.97;101517.16;4830340;29;20291;-76
2022/06/22 00:10:14;;;;;;;;;;;;;;;23.12;41.80;101516.31;4847452;29;19912;-77
2022/06/22 00:12:39;;;;;;;;;;;;;;;23.12;41.68;101517.16;4847263;29;20390;-77
2022/06/22 00:15:19;;;;;;;;;;;;;;;23.11;41.66;101527.72;4831091;29;19916;-76
2022/06/22 00:17:44;;;;;;;;;;;;;;;23.11;41.62;101523.31;4830756;29;19970;-77
2022/06/22 00:20:21;;;;;;;;;;;;;;;23.09;41.80;101525.13;4815316;29;19916;-77
2022/06/22 00:22:53;;;;;;;;;;;;;;;23.10;41.78;101529.44;4846819;29;19986;-77
2022/06/22 00:25:27;;;;;;;;;;;;;;;23.10;41.71;101529.44;4845732;29;19970;-77
2022/06/22 00:27:52;;;;;;;;;;;;;;;23.09;41.71;101534.75;4848007;29;19935;-77
2022/06/22 00:30:23;;;;;;;;;;;;;;;23.10;41.58;101539.94;4829775;29;19978;-77
2022/06/22 00:33:11;;;;;;;;;;;;;;;23.09;42.00;101538.25;4845542;29;20007;-76
2022/06/22 00:35:41;;;;;;;;;;;;;;;23.10;41.59;101544.34;4829883;29;19916;-76
2022/06/22 00:38:11;;;;;;;;;;;;;;;23.09;41.85;101543.50;4845730;29;19966;-76
2022/06/22 00:40:37;;;;;;;;;;;;;;;23.08;41.75;101538.25;4852077;29;20360;-76
2022/06/22 00:43:04;;;;;;;;;;;;;;;23.11;41.86;101546.09;4823981;29;19916;-77
2022/06/22 00:45:29;;;;;;;;;;;;;;;23.09;41.90;101538.25;4851791;29;19913;-78
2022/06/22 00:47:58;;;;;;;;;;;;;;;23.09;42.01;101538.25;4834040;29;20003;-78
2022/06/22 00:50:24;;;;;;;;;;;;;;;23.08;41.85;101535.63;4848530;29;19941;-78
2022/06/22 00:52:59;;;;;;;;;;;;;;;23.08;41.93;101540.88;4847104;29;20435;-77
2022/06/22 00:55:24;;;;;;;;;;;;;;;23.07;41.99;101540.03;4847230;29;19909;-77
2022/06/22 00:57:55;;;;;;;;;;;;;;;23.07;42.01;101547.91;4847816;29;20261;-77
2022/06/22 01:00:22;;;;;;;;;;;;;;;23.08;42.16;101546.13;4830193;29;20382;-77
2022/06/22 01:02:53;;;;;;;;;;;;;;;23.07;42.00;101539.19;4831297;29;19972;-77
2022/06/22 01:05:18;;;;;;;;;;;;;;;23.07;42.22;101536.56;4845636;29;20359;-78
2022/06/22 01:08:07;;;;;;;;;;;;;;;23.07;42.01;101533.94;4845556;29;19913;-77
2022/06/22 01:10:40;;;;;;;;;;;;;;;23.06;41.86;101529.56;4829788;29;19916;-77
2022/06/22 01:13:13;;;;;;;;;;;;;;;23.04;41.98;101531.34;4845801;29;19960;-76
2022/06/22 01:16:04;;;;;;;;;;;;;;;23.05;42.00;101519.97;4845355;29;20290;-76
2022/06/22 01:18:33;;;;;;;;;;;;;;;23.04;41.98;101518.22;4840767;29;20022;-77
2022/06/22 01:21:04;;;;;;;;;;;;;;;23.04;41.88;101519.13;4844862;29;19912;-76
2022/06/22 01:23:32;;;;;;;;;;;;;;;23.05;41.63;101526.06;4828906;29;20019;-77
2022/06/22 01:26:08;;;;;;;;;;;;;;;23.05;42.04;101526.06;4845399;29;19912;-76
2022/06/22 01:28:33;;;;;;;;;;;;;;;23.06;41.80;101513.81;4829526;29;19912;-76
2022/06/22 01:31:11;;;;;;;;;;;;;;;23.06;42.03;101512.06;4829664;29;19991;-76
2022/06/22 01:33:43;;;;;;;;;;;;;;;23.06;41.73;101513.81;4845790;29;19916;-76
2022/06/22 01:36:13;;;;;;;;;;;;;;;23.06;42.22;101517.31;4829758;29;19912;-76
2022/06/22 01:38:39;;;;;;;;;;;;;;;23.06;42.22;101522.56;4845348;29;20344;-76
2022/06/22 01:41:23;;;;;;;;;;;;;;;23.05;41.84;101525.22;4830094;29;19999;-76
2022/06/22 01:44:00;;;;;;;;;;;;;;;23.06;41.82;101521.69;4846261;29;19938;-76
2022/06/22 01:46:44;;;;;;;;;;;;;;;23.05;42.04;101518.19;4829719;29;20002;-76
2022/06/22 01:49:13;;;;;;;;;;;;;;;23.05;42.04;101518.19;4845545;29;20543;-76
2022/06/22 01:51:45;;;;;;;;;;;;;;;23.05;41.87;101515.56;4846197;29;19918;-76
2022/06/22 01:54:13;;;;;;;;;;;;;;;23.05;41.96;101512.94;4846302;29;20011;-76
2022/06/22 01:56:49;;;;;;;;;;;;;;;23.04;42.16;101500.72;4846593;29;19916;-77
2022/06/22 01:59:14;;;;;;;;;;;;;;;23.05;42.08;101505.06;4846889;29;19913;-81
2022/06/22 02:01:47;;;;;;;;;;;;;;;23.04;42.23;101498.13;4849212;29;20337;-81
2022/06/22 02:04:21;;;;;;;;;;;;;;;23.03;41.84;101496.38;4833030;29;20375;-81
2022/06/22 02:09:59;;;;;;;;;;;;;;;23.02;41.82;101499.91;4849266;29;20439;-81
2022/06/22 02:12:28;;;;;;;;;;;;;;;23.03;42.05;101511.25;4834647;29;19913;-81
2022/06/22 02:15:17;;;;;;;;;;;;;;;23.03;41.80;101520.00;4852968;29;20424;-80
2022/06/22 02:17:44;;;;;;;;;;;;;;;23.03;41.99;101548.00;4811047;29;20032;-80
2022/06/22 02:20:24;;;;;;;;;;;;;;;23.03;42.05;101558.50;4852830;29;19912;-83
2022/06/22 02:22:51;;;;;;;;;;;;;;;23.03;42.29;101554.13;4853980;29;19913;-82
2022/06/22 02:25:18;;;;;;;;;;;;;;;23.02;41.91;101549.78;4841712;29;19931;-81
2022/06/22 02:27:43;;;;;;;;;;;;;;;22.99;42.11;101545.44;4857307;29;19936;-81
2022/06/22 02:30:09;;;;;;;;;;;;;;;23.02;42.32;101555.03;4840817;29;19927;-81
2022/06/22 02:32:37;;;;;;;;;;;;;;;23.02;41.92;101552.41;4855827;29;19995;-81
2022/06/22 02:35:04;;;;;;;;;;;;;;;22.99;42.26;101540.19;4857303;29;19920;-81
2022/06/22 02:37:32;;;;;;;;;;;;;;;23.02;42.18;101535.75;4857003;29;19916;-80
2022/06/22 02:40:00;;;;;;;;;;;;;;;22.99;42.01;101526.16;4840749;29;19920;-81
2022/06/22 02:45:10;;;;;;;;;;;;;;;22.97;42.00;101514.84;4842519;29;19982;-81
2022/06/22 02:47:45;;;;;;;;;;;;;;;23.01;42.26;101503.41;4856337;29;19912;-82
2022/06/22 02:50:15;;;;;;;;;;;;;;;22.99;42.03;101497.28;4860296;29;19919;-82
2022/06/22 02:52:44;;;;;;;;;;;;;;;22.96;42.19;101503.47;4855203;29;19912;-82
2022/06/22 02:55:11;;;;;;;;;;;;;;;22.97;41.66;101501.72;4859665;29;19912;-81
2022/06/22 02:57:47;;;;;;;;;;;;;;;22.97;41.93;101499.09;4842830;29;19917;-81
2022/06/22 03:00:14;;;;;;;;;;;;;;;22.96;42.28;101494.75;4859376;29;19917;-82
2022/06/22 03:02:41;;;;;;;;;;;;;;;22.95;41.96;101493.91;4858879;29;19912;-82
2022/06/22 03:05:06;;;;;;;;;;;;;;;22.95;42.14;101491.28;4840420;29;19912;-82
2022/06/22 03:07:34;;;;;;;;;;;;;;;22.95;41.80;101483.41;4840755;29;19912;-82
2022/06/22 03:10:02;;;;;;;;;;;;;;;22.97;42.00;101485.97;4839665;29;19912;-81
2022/06/22 03:12:27;;;;;;;;;;;;;;;22.95;42.32;101472.91;4855197;29;19975;-81
2022/06/22 03:14:58;;;;;;;;;;;;;;;22.96;42.08;101471.13;4845071;29;19920;-81
2022/06/22 03:17:28;;;;;;;;;;;;;;;22.95;42.02;101465.03;4863833;29;19917;-81
2022/06/22 03:19:57;;;;;;;;;;;;;;;22.95;42.11;101477.25;4863341;29;19968;-82
2022/06/22 03:22:29;;;;;;;;;;;;;;;22.96;42.10;101458.00;4858571;29;19913;-82
2022/06/22 03:24:58;;;;;;;;;;;;;;;22.96;42.13;101458.00;4840045;29;19920;-82
2022/06/22 03:27:25;;;;;;;;;;;;;;;22.95;42.08;101453.63;4841535;29;19913;-81
2022/06/22 03:30:01;;;;;;;;;;;;;;;22.96;42.08;101463.25;4847030;29;19971;-82
2022/06/22 03:32:27;;;;;;;;;;;;;;;22.95;41.87;101451.00;4864653;29;19948;-82
2022/06/22 03:35:00;;;;;;;;;;;;;;;22.94;41.96;101454.53;4864976;29;19912;-82
2022/06/22 03:37:38;;;;;;;;;;;;;;;22.91;41.82;101454.63;4863984;29;19924;-81
2022/06/22 03:40:11;;;;;;;;;;;;;;;22.85;42.22;101452.13;4856903;29;20329;-81
2022/06/22 03:42:52;;;;;;;;;;;;;;;22.78;42.31;101454.88;4837888;29;19919;-81
2022/06/22 03:45:20;;;;;;;;;;;;;;;22.76;42.06;101459.31;4852719;29;19916;-82
2022/06/22 03:47:46;;;;;;;;;;;;;;;22.75;42.17;101456.69;4835041;29;19912;-80
2022/06/22 03:50:20;;;;;;;;;;;;;;;22.73;42.37;101469.88;4851446;29;19962;-81
2022/06/22 03:52:51;;;;;;;;;;;;;;;22.71;42.39;101466.41;4850611;29;20265;-81
2022/06/22 03:55:22;;;;;;;;;;;;;;;22.70;42.42;101462.06;4852302;29;20006;-81
2022/06/22 03:57:52;;;;;;;;;;;;;;;22.69;42.17;101465.59;4851555;29;19939;-81
2022/06/22 04:00:17;;;;;;;;;;;;;;;22.70;42.11;101471.69;4834448;29;19956;-81
2022/06/22 04:02:43;;;;;;;;;;;;;;;22.70;42.21;101472.53;4833781;29;20028;-81
2022/06/22 04:05:19;;;;;;;;;;;;;;;22.70;42.33;101471.69;4834105;29;19912;-81
2022/06/22 04:07:45;;;;;;;;;;;;;;;22.68;42.29;101470.84;4833306;29;19912;-81
2022/06/22 04:10:30;;;;;;;;;;;;;;;22.68;42.32;101474.34;4818040;29;19917;-82
2022/06/22 04:12:56;;;;;;;;;;;;;;;22.68;42.25;101484.81;4834038;29;19912;-82
2022/06/22 04:15:28;;;;;;;;;;;;;;;22.67;42.38;101487.47;4850617;29;19973;-82
2022/06/22 04:17:56;;;;;;;;;;;;;;;22.66;42.41;101491.88;4833423;29;19972;-82
2022/06/22 04:20:50;;;;;;;;;;;;;;;22.66;42.15;101488.38;4849129;29;19920;-82
2022/06/22 04:23:23;;;;;;;;;;;;;;;22.66;42.52;101491.00;4859857;29;19959;-81
2022/06/22 04:25:48;;;;;;;;;;;;;;;22.65;42.27;101492.78;4853980;29;19979;-82
2022/06/22 04:28:15;;;;;;;;;;;;;;;22.64;42.41;101491.03;4852650;29;19920;-82
2022/06/22 04:30:46;;;;;;;;;;;;;;;22.64;42.47;101493.66;4852221;29;19912;-82
2022/06/22 04:33:30;;;;;;;;;;;;;;;22.71;42.34;101503.16;4848396;29;20389;-80
2022/06/22 04:36:23;;;;;;;;;;;;;;;22.78;42.17;101499.50;4855065;29;20295;-78
2022/06/22 04:38:51;;;;;;;;;;;;;;;22.85;41.87;101499.38;4829113;29;20340;-80
2022/06/22 04:41:19;;;;;;;;;;;;;;;22.88;42.03;101500.16;4856592;29;19916;-81
2022/06/22 04:43:46;;;;;;;;;;;;;;;22.93;41.80;101494.78;4855019;29;19919;-79
2022/06/22 04:46:14;;;;;;;;;;;;;;;22.95;41.94;101491.28;4849052;29;20014;-78
2022/06/22 04:48:42;;;;;;;;;;;;;;;23.01;41.66;101492.91;4832165;29;19918;-81
2022/06/22 04:51:11;;;;;;;;;;;;;;;23.03;41.94;101488.50;4831840;29;19919;-78
2022/06/22 04:53:42;;;;;;;;;;;;;;;23.06;41.93;101491.06;4831037;29;20005;-78
2022/06/22 04:56:10;;;;;;;;;;;;;;;23.11;41.82;101496.22;4848063;29;19920;-79
2022/06/22 04:58:38;;;;;;;;;;;;;;;22.99;42.11;101489.41;4848479;29;19923;-80
2022/06/22 05:01:04;;;;;;;;;;;;;;;22.91;42.01;101500.09;4846883;29;20453;-80
2022/06/22 05:03:30;;;;;;;;;;;;;;;22.89;42.33;101503.66;4848568;29;20010;-81
2022/06/22 05:05:58;;;;;;;;;;;;;;;22.87;42.05;101500.19;4854785;29;19924;-81
2022/06/22 05:08:27;;;;;;;;;;;;;;;22.86;42.26;101496.69;4851316;29;20256;-82
2022/06/22 05:10:52;;;;;;;;;;;;;;;22.87;42.14;101500.19;4834995;29;19959;-79
2022/06/22 05:13:30;;;;;;;;;;;;;;;22.89;42.41;101501.03;4857192;29;19916;-81
2022/06/22 05:15:57;;;;;;;;;;;;;;;22.98;42.49;101500.84;4858890;29;19903;-80
2022/06/22 05:21:06;;;;;;;;;;;;;;;22.84;43.16;101514.22;4942411;23;19947;-80
2022/06/22 05:23:33;;;;;;;;;;;;;;;22.69;42.99;101514.53;4900104;29;19920;-79
2022/06/22 05:26:07;;;;;;;;;;;;;;;22.61;43.07;101524.34;4886461;29;19970;-80
2022/06/22 05:28:51;;;;;;;;;;;;;;;22.52;43.08;101530.63;4883240;29;19936;-82
2022/06/22 05:31:21;;;;;;;;;;;;;;;22.50;43.13;101529.81;4895230;29;19963;-81
2022/06/22 05:34:07;;;;;;;;;;;;;;;22.49;43.27;101531.53;4876738;29;19912;-81
2022/06/22 05:36:37;;;;;;;;;;;;;;;22.51;43.15;101535.00;4876582;29;20264;-81
2022/06/22 05:39:03;;;;;;;;;;;;;;;22.46;43.25;101536.00;4872808;29;19911;-81
2022/06/22 05:41:30;;;;;;;;;;;;;;;22.37;43.93;101529.16;4891881;29;19930;-80
2022/06/22 05:44:02;;;;;;;;;;;;;;;22.34;43.81;101532.72;4891530;29;19911;-81
2022/06/22 05:46:27;;;;;;;;;;;;;;;22.37;44.00;101539.66;4871771;29;19944;-81
2022/06/22 05:48:55;;;;;;;;;;;;;;;22.37;44.08;101539.66;4886653;29;20406;-80
2022/06/22 05:51:28;;;;;;;;;;;;;;;22.37;44.12;101542.28;4883999;29;19922;-82
2022/06/22 05:53:57;;;;;;;;;;;;;;;22.40;43.89;101534.34;4901941;29;19912;-81
2022/06/22 05:56:52;;;;;;;;;;;;;;;22.43;43.62;101538.66;4895563;29;19911;-80
2022/06/22 05:59:27;;;;;;;;;;;;;;;22.37;44.10;101544.91;4875575;29;19998;-81
2022/06/22 06:01:52;;;;;;;;;;;;;;;22.39;43.93;101541.34;4876113;29;19918;-81
2022/06/22 06:04:24;;;;;;;;;;;;;;;22.42;43.75;101552.69;4890887;29;19916;-81
2022/06/22 06:06:52;;;;;;;;;;;;;;;22.44;44.05;101549.13;4874872;29;19958;-81
2022/06/22 06:09:20;;;;;;;;;;;;;;;22.46;44.04;101549.97;4874302;29;19966;-81
2022/06/22 06:11:48;;;;;;;;;;;;;;;22.45;43.86;101549.97;4874220;29;19919;-81
2022/06/22 06:14:18;;;;;;;;;;;;;;;22.42;43.96;101548.28;4873100;29;19916;-80
2022/06/22 06:16:49;;;;;;;;;;;;;;;22.50;43.92;101543.78;4889752;29;19916;-81
2022/06/22 06:19:18;;;;;;;;;;;;;;;22.50;43.69;101542.91;4872565;29;19920;-81
2022/06/22 06:21:45;;;;;;;;;;;;;;;22.46;43.73;101542.09;4874050;29;19912;-81
2022/06/22 06:24:17;;;;;;;;;;;;;;;22.46;43.74;101547.34;4880418;29;19922;-81
2022/06/22 06:29:34;;;;;;;;;;;;;;;22.54;43.85;101555.09;4891492;29;19918;-81
2022/06/22 06:32:00;;;;;;;;;;;;;;;22.59;43.58;101556.72;4893490;29;19911;-82
2022/06/22 06:34:46;;;;;;;;;;;;;;;22.56;43.61;101556.78;4876161;29;19919;-82
2022/06/22 06:37:11;;;;;;;;;;;;;;;22.54;43.52;101562.94;4876578;29;19947;-82
2022/06/22 06:39:41;;;;;;;;;;;;;;;22.46;43.63;101556.97;4874511;29;19912;-81
2022/06/22 06:42:19;;;;;;;;;;;;;;;22.52;43.50;101562.13;4878980;29;20256;-81
2022/06/22 06:44:45;;;;;;;;;;;;;;;22.56;43.52;101558.53;4900721;29;19903;-83
2022/06/22 06:47:13;;;;;;;;;;;;;;;22.58;43.65;101555.00;4984219;24;19921;-85
2022/06/22 06:49:40;;;;;;;;;;;;;;;22.53;43.54;101556.81;4847265;29;19901;-85
2022/06/22 06:52:06;;;;;;;;;;;;;;;22.57;43.39;101558.50;4847696;29;19921;-86
2022/06/22 06:54:34;;;;;;;;;;;;;;;22.58;43.49;101556.72;5284931;24;19924;-83
2022/06/22 06:59:35;;;;;;;;;;;;;;;22.64;43.70;101556.63;5341833;23;20290;-78
2022/06/22 07:02:11;;;;;;;;;;;;;;;22.70;43.58;101547.78;4870745;29;19916;-78
2022/06/22 07:04:36;;;;;;;;;;;;;;;22.68;43.60;101549.56;4869887;29;19967;-78
2022/06/22 07:07:19;;;;;;;;;;;;;;;22.70;43.76;101545.16;4869461;29;19916;-78
2022/06/22 07:09:47;;;;;;;;;;;;;;;22.70;43.63;101540.75;4869947;29;20377;-78
2022/06/22 07:12:33;;;;;;;;;;;;;;;22.74;43.49;101541.56;4867516;29;19918;-78
2022/06/22 07:15:00;;;;;;;;;;;;;;;22.75;43.15;101546.78;4856667;29;19940;-78
2022/06/22 07:17:26;;;;;;;;;;;;;;;22.72;43.02;101536.34;4869018;29;20036;-78
2022/06/22 07:19:58;;;;;;;;;;;;;;;22.76;42.84;101527.53;4869397;29;19999;-78
2022/06/22 07:22:27;;;;;;;;;;;;;;;22.72;42.78;101525.84;4885474;29;19936;-78
2022/06/22 07:24:53;;;;;;;;;;;;;;;22.76;42.62;101521.41;4869608;29;19915;-77
2022/06/22 07:27:20;;;;;;;;;;;;;;;22.77;41.88;101510.88;4891327;29;19911;-78
2022/06/22 07:29:56;;;;;;;;;;;;;;;22.74;41.22;101513.56;4871989;29;19912;-78
2022/06/22 07:32:21;;;;;;;;;;;;;;;22.70;41.54;101517.16;4872129;29;19946;-77
2022/06/22 07:34:52;;;;;;;;;;;;;;;22.74;41.20;101510.94;4870987;29;19980;-78
2022/06/22 07:37:27;;;;;;;;;;;;;;;22.80;41.25;101505.56;4887458;29;19963;-78
2022/06/22 07:39:57;;;;;;;;;;;;;;;22.88;41.26;101505.41;4868807;29;19955;-78
2022/06/22 07:42:24;;;;;;;;;;;;;;;22.86;41.04;101499.31;4869478;29;19919;-78
2022/06/22 07:44:49;;;;;;;;;;;;;;;22.86;40.80;101512.44;4869630;29;19916;-78
2022/06/22 07:47:14;;;;;;;;;;;;;;;22.84;40.85;101510.75;4870099;29;19915;-78
2022/06/22 07:49:45;;;;;;;;;;;;;;;22.85;41.02;101515.13;4886061;29;19919;-78
2022/06/22 07:52:18;;;;;;;;;;;;;;;22.92;41.40;101507.06;4869162;29;20021;-78
2022/06/22 07:54:46;;;;;;;;;;;;;;;22.90;41.13;101505.38;4869552;29;20431;-78
2022/06/22 07:57:14;;;;;;;;;;;;;;;22.92;41.10;101511.47;4851182;29;19916;-78
2022/06/22 07:59:43;;;;;;;;;;;;;;;22.92;41.29;101509.69;4866113;29;20390;-77
2022/06/22 08:02:14;;;;;;;;;;;;;;;22.96;41.51;101513.97;4864557;29;19915;-78
2022/06/22 08:04:44;;;;;;;;;;;;;;;23.03;41.27;101512.13;4865834;29;19912;-78
2022/06/22 08:07:21;;;;;;;;;;;;;;;23.03;41.64;101525.25;4849343;29;19912;-78
2022/06/22 08:09:46;;;;;;;;;;;;;;;23.05;41.27;101526.06;4849643;29;19983;-79
2022/06/22 08:12:18;;;;;;;;;;;;;;;23.04;40.83;101519.13;4865854;29;20360;-79
2022/06/22 08:14:45;;;;;;;;;;;;;;;22.93;40.87;101526.28;4849581;29;20423;-78
2022/06/22 08:17:31;;;;;;;;;;;;;;;22.92;40.86;101521.94;4849036;29;19916;-78
2022/06/22 08:19:56;;;;;;;;;;;;;;;22.94;40.90;101509.66;4833038;29;19928;-78
2022/06/22 08:22:22;;;;;;;;;;;;;;;22.90;40.91;101513.25;4864542;29;20340;-78
2022/06/22 08:24:48;;;;;;;;;;;;;;;22.98;41.00;101520.06;4850046;29;19916;-78
2022/06/22 08:27:16;;;;;;;;;;;;;;;23.06;40.24;101519.06;4872035;29;19932;-78
2022/06/22 08:29:42;;;;;;;;;;;;;;;22.96;40.43;101516.59;4873609;29;19912;-77
2022/06/22 08:32:18;;;;;;;;;;;;;;;22.94;40.16;101518.41;4871189;29;19954;-78
2022/06/22 08:34:48;;;;;;;;;;;;;;;22.93;40.74;101515.78;4851781;29;19916;-77
2022/06/22 08:37:33;;;;;;;;;;;;;;;22.98;40.70;101520.06;4851265;29;19924;-77
2022/06/22 08:40:01;;;;;;;;;;;;;;;22.95;40.33;101519.25;4805378;29;19937;-78
2022/06/22 08:42:53;;;;;;;;;;;;;;;22.94;40.45;101521.03;4850324;29;19912;-78
2022/06/22 08:45:36;;;;;;;;;;;;;;;22.96;40.43;101528.88;4831572;29;19920;-77
2022/06/22 08:48:02;;;;;;;;;;;;;;;22.99;40.61;101524.44;4865460;29;19918;-78
2022/06/22 08:50:49;;;;;;;;;;;;;;;23.05;40.10;101525.22;4866216;29;20282;-78
2022/06/22 08:53:34;;;;;;;;;;;;;;;22.90;40.54;101519.34;4850383;29;19916;-78
2022/06/22 08:56:03;;;;;;;;;;;;;;;22.99;40.31;101520.91;4866656;29;19991;-78
2022/06/22 08:58:37;;;;;;;;;;;;;;;23.07;40.21;101523.44;4871118;29;19973;-77
2022/06/22 09:01:03;;;;;;;;;;;;;;;22.94;40.42;101522.78;4863958;29;19916;-78
2022/06/22 09:03:40;;;;;;;;;;;;;;;22.91;40.60;101536.00;4863021;29;19935;-78
2022/06/22 09:06:35;;;;;;;;;;;;;;;22.92;40.58;101532.44;4866755;29;19951;-77
2022/06/22 09:09:00;;;;;;;;;;;;;;;22.93;40.23;101532.44;4772243;29;19914;-78
2022/06/22 09:11:38;;;;;;;;;;;;;;;23.00;40.32;101541.94;4868180;29;20415;-78
2022/06/22 09:14:09;;;;;;;;;;;;;;;23.02;39.85;101539.28;4868329;29;19912;-77
2022/06/22 09:16:46;;;;;;;;;;;;;;;22.91;39.60;101542.09;4866808;29;19912;-78
2022/06/22 09:19:30;;;;;;;;;;;;;;;22.89;39.86;101545.66;4867311;29;19955;-78
2022/06/22 09:22:00;;;;;;;;;;;;;;;22.94;39.63;101546.41;4867448;29;19912;-78
2022/06/22 09:24:41;;;;;;;;;;;;;;;22.95;39.18;101537.63;4867119;29;19912;-78
2022/06/22 09:27:06;;;;;;;;;;;;;;;22.94;39.32;101533.28;4866992;29;19935;-78
2022/06/22 09:29:50;;;;;;;;;;;;;;;22.93;39.06;101542.94;4866674;29;19915;-78
2022/06/22 09:32:15;;;;;;;;;;;;;;;22.95;39.07;101541.13;4865609;29;19912;-78
2022/06/22 09:34:53;;;;;;;;;;;;;;;22.93;38.53;101545.56;4866054;29;19934;-78
2022/06/22 09:37:37;;;;;;;;;;;;;;;22.93;38.80;101539.41;4865992;29;19912;-78
2022/06/22 09:40:21;;;;;;;;;;;;;;;22.95;37.96;101537.63;4867660;29;19919;-78
2022/06/22 09:42:49;;;;;;;;;;;;;;;22.89;37.78;101536.00;4865420;29;19919;-78
2022/06/22 09:45:44;;;;;;;;;;;;;;;22.94;37.91;101541.16;4864653;29;20328;-78
2022/06/22 09:48:28;;;;;;;;;;;;;;;22.93;37.64;101550.81;4844110;29;19912;-78
2022/06/22 09:51:11;;;;;;;;;;;;;;;22.95;37.56;101540.25;4865795;29;19912;-77
2022/06/22 09:53:52;;;;;;;;;;;;;;;22.98;37.72;101537.56;4866167;29;19951;-77
2022/06/22 09:56:30;;;;;;;;;;;;;;;23.00;37.31;101535.81;4863955;29;19912;-76
2022/06/22 09:59:06;;;;;;;;;;;;;;;22.96;37.38;101534.13;4847881;29;19945;-77
2022/06/22 10:01:34;;;;;;;;;;;;;;;22.97;36.99;101530.59;4866560;29;20018;-77
2022/06/22 10:04:18;;;;;;;;;;;;;;;22.97;36.71;101533.22;4865873;29;20004;-77
2022/06/22 10:06:57;;;;;;;;;;;;;;;22.91;35.89;101534.22;4866267;29;20019;-77
2022/06/22 10:09:47;;;;;;;;;;;;;;;22.92;35.31;101537.69;4849261;29;20358;-77
2022/06/22 10:12:12;;;;;;;;;;;;;;;22.90;34.54;101532.47;4865457;29;19951;-77
2022/06/22 10:14:40;;;;;;;;;;;;;;;22.89;34.52;101529.91;4864236;29;19939;-77
2022/06/22 10:17:12;;;;;;;;;;;;;;;22.89;33.60;101529.91;4865270;29;19916;-76
2022/06/22 10:19:52;;;;;;;;;;;;;;;22.79;32.79;101519.56;4863807;29;19912;-76
2022/06/22 10:22:36;;;;;;;;;;;;;;;22.73;32.56;101519.72;4863552;29;19936;-77
2022/06/22 10:25:14;;;;;;;;;;;;;;;22.74;32.30;101518.81;4863931;29;19963;-76
2022/06/22 10:27:51;;;;;;;;;;;;;;;22.73;31.78;101522.34;4848089;29;19912;-76
2022/06/22 10:30:35;;;;;;;;;;;;;;;22.76;32.23;101518.78;4849291;29;19919;-80
2022/06/22 10:33:04;;;;;;;;;;;;;;;22.76;31.41;101517.03;4879360;29;19919;-81
2022/06/22 10:35:29;;;;;;;;;;;;;;;22.73;32.06;101509.22;4874422;29;19975;-81
2022/06/22 10:37:57;;;;;;;;;;;;;;;22.72;31.59;101509.25;4874418;29;19993;-81
2022/06/22 10:46:21;;;;;;;;;;;;;;;22.76;31.08;101503.06;4803655;29;19920;-77
2022/06/22 10:48:49;;;;;;;;;;;;;;;22.77;31.57;101496.88;4853946;29;19919;-78
2022/06/22 10:51:34;;;;;;;;;;;;;;;22.82;31.91;101494.16;4868530;29;19991;-78
2022/06/22 10:54:18;;;;;;;;;;;;;;;22.86;32.33;101495.84;4868894;29;19912;-78
2022/06/22 10:56:59;;;;;;;;;;;;;;;22.96;32.01;101500.00;4869621;29;19928;-78
2022/06/22 10:59:38;;;;;;;;;;;;;;;23.09;32.12;101495.38;4869992;29;19920;-77
2022/06/22 11:02:32;;;;;;;;;;;;;;;23.12;32.70;101497.91;4855121;29;19912;-77
2022/06/22 11:05:16;;;;;;;;;;;;;;;23.17;32.80;101491.69;4860120;29;19916;-78
2022/06/22 11:07:51;;;;;;;;;;;;;;;23.17;32.59;101494.31;4873620;29;19912;-77
2022/06/22 11:10:16;;;;;;;;;;;;;;;23.16;32.60;101487.31;4870016;29;20296;-78
2022/06/22 11:13:00;;;;;;;;;;;;;;;23.20;32.57;101501.25;4869883;29;19964;-78
2022/06/22 11:15:43;;;;;;;;;;;;;;;23.21;32.41;101492.47;4869296;29;19912;-78
2022/06/22 11:18:09;;;;;;;;;;;;;;;23.21;32.29;101489.84;4854492;29;20285;-78
2022/06/22 11:20:37;;;;;;;;;;;;;;;23.18;32.31;101490.78;4872313;29;19919;-78
2022/06/22 11:23:13;;;;;;;;;;;;;;;23.22;32.65;101483.69;4869792;29;19919;-78
2022/06/22 11:31:19;;;;;;;;;;;;;;;23.24;32.97;101475.78;4871815;29;20046;-78
2022/06/22 11:33:44;;;;;;;;;;;;;;;23.18;33.66;101468.91;4869666;29;19919;-79
2022/06/22 11:36:28;;;;;;;;;;;;;;;23.24;33.70;101476.66;4866933;29;19911;-79
2022/06/22 11:38:53;;;;;;;;;;;;;;;23.26;33.68;101463.50;4867441;29;19971;-78
2022/06/22 11:41:37;;;;;;;;;;;;;;;23.26;34.11;101469.59;4868990;29;19912;-78
2022/06/22 11:44:18;;;;;;;;;;;;;;;23.32;33.92;101464.22;4867706;29;19919;-78
2022/06/22 11:46:52;;;;;;;;;;;;;;;23.32;33.87;101469.47;4868027;29;19919;-78
2022/06/22 11:49:31;;;;;;;;;;;;;;;23.29;33.59;101469.53;4853371;29;19912;-78
2022/06/22 11:52:16;;;;;;;;;;;;;;;23.31;33.73;101461.63;4856311;29;20392;-79
2022/06/22 11:54:56;;;;;;;;;;;;;;;23.29;33.23;101466.88;4875410;29;19951;-77
2022/06/22 11:57:22;;;;;;;;;;;;;;;23.32;33.50;101468.56;4880175;29;19923;-78
2022/06/22 12:00:02;;;;;;;;;;;;;;;23.33;33.37;101462.44;4873761;29;19920;-78
2022/06/22 12:02:47;;;;;;;;;;;;;;;23.35;32.78;101471.16;4869879;29;19916;-77
2022/06/22 12:05:31;;;;;;;;;;;;;;;23.37;31.80;101471.97;4870025;29;19920;-79
2022/06/22 12:08:06;;;;;;;;;;;;;;;23.34;31.20;101469.41;4874567;29;19952;-78
2022/06/22 12:10:46;;;;;;;;;;;;;;;23.32;32.20;101466.84;4870727;29;19968;-78
2022/06/22 12:13:11;;;;;;;;;;;;;;;23.30;31.12;101465.13;4852102;29;20367;-79
2022/06/22 12:15:55;;;;;;;;;;;;;;;23.31;31.20;101462.47;4866963;29;20025;-78
2022/06/22 12:18:32;;;;;;;;;;;;;;;23.30;31.12;101467.75;4869548;29;19923;-78
2022/06/22 12:21:16;;;;;;;;;;;;;;;23.32;30.99;101452.81;4867828;29;20481;-79
2022/06/22 12:23:52;;;;;;;;;;;;;;;23.34;31.07;101459.78;4867036;29;19912;-78
2022/06/22 12:26:21;;;;;;;;;;;;;;;23.32;30.31;101460.69;4865453;29;19912;-79
2022/06/22 12:29:03;;;;;;;;;;;;;;;23.35;30.76;101468.53;4867335;29;19980;-78
2022/06/22 12:31:38;;;;;;;;;;;;;;;23.31;30.37;101461.63;4868288;29;19912;-78
2022/06/22 12:34:03;;;;;;;;;;;;;;;23.30;30.39;101457.25;4852933;29;20393;-78
2022/06/22 12:36:29;;;;;;;;;;;;;;;23.31;31.12;101459.84;4868358;29;19916;-78
2022/06/22 12:38:57;;;;;;;;;;;;;;;23.34;30.36;101459.78;4867331;29;19980;-78
2022/06/22 12:41:43;;;;;;;;;;;;;;;23.32;30.01;101456.34;4852703;29;19951;-79
2022/06/22 12:44:25;;;;;;;;;;;;;;;23.32;30.18;101464.22;4852920;29;19916;-78
2022/06/22 12:47:00;;;;;;;;;;;;;;;23.33;30.62;101459.81;4851943;29;19912;-78
2022/06/22 12:49:44;;;;;;;;;;;;;;;23.35;30.37;101450.13;4867500;29;19912;-78
2022/06/22 12:52:22;;;;;;;;;;;;;;;23.34;30.35;101445.78;4867211;29;19921;-78
2022/06/22 12:54:55;;;;;;;;;;;;;;;23.36;29.69;101444.81;4866898;29;20438;-78
2022/06/22 12:57:23;;;;;;;;;;;;;;;23.37;29.41;101435.22;4867437;29;20011;-79
2022/06/22 13:00:09;;;;;;;;;;;;;;;23.37;28.71;101435.22;4851110;29;19929;-78
2022/06/22 13:02:36;;;;;;;;;;;;;;;23.34;29.00;101425.66;4848831;29;19911;-78
2022/06/22 13:05:09;;;;;;;;;;;;;;;23.36;28.84;101441.34;4849738;29;19919;-78
2022/06/22 13:07:43;;;;;;;;;;;;;;;23.33;28.80;101426.53;4849889;29;19912;-78
2022/06/22 13:10:13;;;;;;;;;;;;;;;23.35;28.91;101426.50;4865478;29;19941;-78
2022/06/22 13:12:44;;;;;;;;;;;;;;;23.33;28.86;101421.28;4864139;29;19915;-78
2022/06/22 13:15:16;;;;;;;;;;;;;;;23.31;29.19;101432.72;4848637;29;20299;-79
2022/06/22 13:17:42;;;;;;;;;;;;;;;23.34;29.42;101420.41;4865063;29;20371;-78
2022/06/22 13:20:20;;;;;;;;;;;;;;;23.36;29.06;101425.59;4864769;29;19912;-79
2022/06/22 13:22:55;;;;;;;;;;;;;;;23.37;27.25;101417.69;4864552;29;19912;-78
2022/06/22 13:25:20;;;;;;;;;;;;;;;23.40;27.08;101411.47;4847869;29;19920;-78
2022/06/22 13:27:55;;;;;;;;;;;;;;;23.39;27.38;101420.28;4864013;29;20408;-79